Fort Benton (79S)
Fort Benton, MT
Field Elevation: 2869
Lat: 47°50.42N  Long: 110°38.11W
CTAF/Unicom Freq: 122.8000
   
     For Weather-by-Phone, call 406-622-5976
Weather Advisories
9/3/2014 06:54 Z
Altimeter 29.65" Hg
Wind 040° @ 5 KT
Gusts --
Visibility 10 SM
Temperature 16° C (61° F)
Dewpoint 4° C (39° F)
Relative Humidity 46%
Density Altitude 3,900 feet
Condensation Altitude 8,700 feet
  Wind and Runways
Indicated Runway = 5
History
 
 
More Info
All DigiWx sites map
NOAA Forecast
 
Airport IQ 5010
(6S5) Ravalli County
(S71) Edgar Obie
 
about DigiWx
 
FAA Disclaimer: The data displayed is for advisory purposes only and is not to be used for flight planning or operations. For official data, please call 406-622-5976 to hear the current automated AWOS voice message.
  METAR 79S 030654Z AUTO 04005KT 10SM 16/04 A2965